sensor_id;sensor_type;location;lat;lon;timestamp;P1;durP1;ratioP1;P2;durP2;ratioP2
18042;SDS011;9146;48.074;11.968;2023-04-06T00:00:47;6.67;;;5.77;;
18042;SDS011;9146;48.074;11.968;2023-04-06T00:03:16;5.10;;;4.60;;
18042;SDS011;9146;48.074;11.968;2023-04-06T00:05:43;4.80;;;4.30;;
18042;SDS011;9146;48.074;11.968;2023-04-06T00:08:10;5.40;;;4.90;;
18042;SDS011;9146;48.074;11.968;2023-04-06T00:10:37;5.73;;;4.60;;
18042;SDS011;9146;48.074;11.968;2023-04-06T00:13:04;5.17;;;4.67;;
18042;SDS011;9146;48.074;11.968;2023-04-06T00:15:32;5.10;;;4.60;;
18042;SDS011;9146;48.074;11.968;2023-04-06T00:17:59;7.20;;;5.07;;
18042;SDS011;9146;48.074;11.968;2023-04-06T00:20:28;9.40;;;5.27;;
18042;SDS011;9146;48.074;11.968;2023-04-06T00:22:55;5.53;;;5.03;;
18042;SDS011;9146;48.074;11.968;2023-04-06T00:25:22;4.63;;;4.17;;
18042;SDS011;9146;48.074;11.968;2023-04-06T00:27:49;11.03;;;5.50;;
18042;SDS011;9146;48.074;11.968;2023-04-06T00:30:16;8.80;;;4.77;;
18042;SDS011;9146;48.074;11.968;2023-04-06T00:32:43;10.70;;;4.90;;
18042;SDS011;9146;48.074;11.968;2023-04-06T00:35:10;6.10;;;4.73;;
18042;SDS011;9146;48.074;11.968;2023-04-06T00:37:39;4.93;;;4.53;;
18042;SDS011;9146;48.074;11.968;2023-04-06T00:40:06;5.37;;;4.30;;
18042;SDS011;9146;48.074;11.968;2023-04-06T00:42:34;5.60;;;5.10;;
18042;SDS011;9146;48.074;11.968;2023-04-06T00:45:02;6.50;;;4.70;;
18042;SDS011;9146;48.074;11.968;2023-04-06T00:47:30;5.50;;;5.00;;
18042;SDS011;9146;48.074;11.968;2023-04-06T00:49:57;4.83;;;4.33;;
18042;SDS011;9146;48.074;11.968;2023-04-06T00:52:24;4.83;;;3.70;;
18042;SDS011;9146;48.074;11.968;2023-04-06T00:54:53;7.80;;;4.70;;
18042;SDS011;9146;48.074;11.968;2023-04-06T00:57:20;4.67;;;4.23;;
18042;SDS011;9146;48.074;11.968;2023-04-06T00:59:47;5.40;;;4.60;;
18042;SDS011;9146;48.074;11.968;2023-04-06T01:02:14;4.10;;;3.70;;
18042;SDS011;9146;48.074;11.968;2023-04-06T01:04:41;4.70;;;4.00;;
18042;SDS011;9146;48.074;11.968;2023-04-06T01:07:08;5.23;;;4.50;;
18042;SDS011;9146;48.074;11.968;2023-04-06T01:09:35;10.27;;;5.37;;
18042;SDS011;9146;48.074;11.968;2023-04-06T01:12:04;7.73;;;5.37;;
18042;SDS011;9146;48.074;11.968;2023-04-06T01:14:31;13.13;;;6.30;;
18042;SDS011;9146;48.074;11.968;2023-04-06T01:16:58;9.83;;;6.23;;
18042;SDS011;9146;48.074;11.968;2023-04-06T01:19:26;9.37;;;6.70;;
18042;SDS011;9146;48.074;11.968;2023-04-06T01:21:53;6.50;;;5.83;;
18042;SDS011;9146;48.074;11.968;2023-04-06T01:24:22;8.20;;;6.60;;
18042;SDS011;9146;48.074;11.968;2023-04-06T01:26:49;6.80;;;6.00;;
18042;SDS011;9146;48.074;11.968;2023-04-06T01:29:16;8.27;;;6.40;;
18042;SDS011;9146;48.074;11.968;2023-04-06T01:31:43;8.20;;;6.83;;
18042;SDS011;9146;48.074;11.968;2023-04-06T01:34:10;8.13;;;5.90;;
18042;SDS011;9146;48.074;11.968;2023-04-06T01:36:37;7.27;;;5.83;;
18042;SDS011;9146;48.074;11.968;2023-04-06T01:39:05;6.37;;;5.70;;
18042;SDS011;9146;48.074;11.968;2023-04-06T01:41:33;5.43;;;4.93;;
18042;SDS011;9146;48.074;11.968;2023-04-06T01:44:00;9.23;;;6.07;;
18042;SDS011;9146;48.074;11.968;2023-04-06T01:46:28;14.63;;;6.17;;
18042;SDS011;9146;48.074;11.968;2023-04-06T01:48:55;6.20;;;5.70;;
18042;SDS011;9146;48.074;11.968;2023-04-06T01:51:22;10.67;;;6.37;;
18042;SDS011;9146;48.074;11.968;2023-04-06T01:53:51;6.87;;;5.17;;
18042;SDS011;9146;48.074;11.968;2023-04-06T01:56:17;6.37;;;5.37;;
18042;SDS011;9146;48.074;11.968;2023-04-06T01:58:46;5.27;;;4.80;;
18042;SDS011;9146;48.074;11.968;2023-04-06T02:01:13;5.60;;;5.07;;
18042;SDS011;9146;48.074;11.968;2023-04-06T02:03:40;5.83;;;5.23;;
18042;SDS011;9146;48.074;11.968;2023-04-06T02:06:07;7.87;;;5.00;;
18042;SDS011;9146;48.074;11.968;2023-04-06T02:08:35;5.50;;;5.00;;
18042;SDS011;9146;48.074;11.968;2023-04-06T02:11:02;5.73;;;4.90;;
18042;SDS011;9146;48.074;11.968;2023-04-06T02:13:29;5.53;;;5.00;;
18042;SDS011;9146;48.074;11.968;2023-04-06T02:15:57;7.33;;;6.23;;
18042;SDS011;9146;48.074;11.968;2023-04-06T02:18:25;7.73;;;6.47;;
18042;SDS011;9146;48.074;11.968;2023-04-06T02:20:53;9.27;;;7.30;;
18042;SDS011;9146;48.074;11.968;2023-04-06T02:23:20;9.60;;;7.47;;
18042;SDS011;9146;48.074;11.968;2023-04-06T02:25:48;9.53;;;7.03;;
18042;SDS011;9146;48.074;11.968;2023-04-06T02:28:15;10.10;;;7.03;;
18042;SDS011;9146;48.074;11.968;2023-04-06T02:30:42;8.27;;;6.70;;
18042;SDS011;9146;48.074;11.968;2023-04-06T02:33:10;8.13;;;6.20;;
18042;SDS011;9146;48.074;11.968;2023-04-06T02:35:37;9.30;;;6.27;;
18042;SDS011;9146;48.074;11.968;2023-04-06T02:38:04;7.47;;;6.63;;
18042;SDS011;9146;48.074;11.968;2023-04-06T02:40:31;7.93;;;7.00;;
18042;SDS011;9146;48.074;11.968;2023-04-06T02:42:58;8.37;;;7.40;;
18042;SDS011;9146;48.074;11.968;2023-04-06T02:45:25;13.33;;;8.33;;
18042;SDS011;9146;48.074;11.968;2023-04-06T02:47:52;11.23;;;7.53;;
18042;SDS011;9146;48.074;11.968;2023-04-06T02:50:21;7.93;;;7.13;;
18042;SDS011;9146;48.074;11.968;2023-04-06T02:52:48;14.57;;;8.07;;
18042;SDS011;9146;48.074;11.968;2023-04-06T02:55:15;9.83;;;6.80;;
18042;SDS011;9146;48.074;11.968;2023-04-06T02:57:42;8.50;;;7.57;;
18042;SDS011;9146;48.074;11.968;2023-04-06T03:00:10;8.77;;;7.63;;
18042;SDS011;9146;48.074;11.968;2023-04-06T03:02:38;9.07;;;6.47;;
18042;SDS011;9146;48.074;11.968;2023-04-06T03:05:05;10.40;;;7.07;;
18042;SDS011;9146;48.074;11.968;2023-04-06T03:07:33;22.17;;;8.20;;
18042;SDS011;9146;48.074;11.968;2023-04-06T03:10:00;8.50;;;7.60;;
18042;SDS011;9146;48.074;11.968;2023-04-06T03:12:27;8.90;;;7.60;;
18042;SDS011;9146;48.074;11.968;2023-04-06T03:14:54;7.83;;;6.53;;
18042;SDS011;9146;48.074;11.968;2023-04-06T03:17:21;10.13;;;7.17;;
18042;SDS011;9146;48.074;11.968;2023-04-06T03:19:48;8.93;;;6.97;;
18042;SDS011;9146;48.074;11.968;2023-04-06T03:22:15;8.03;;;6.70;;
18042;SDS011;9146;48.074;11.968;2023-04-06T03:24:44;6.80;;;6.10;;
18042;SDS011;9146;48.074;11.968;2023-04-06T03:27:11;7.90;;;6.80;;
18042;SDS011;9146;48.074;11.968;2023-04-06T03:29:38;9.23;;;5.63;;
18042;SDS011;9146;48.074;11.968;2023-04-06T03:32:05;7.20;;;5.93;;
18042;SDS011;9146;48.074;11.968;2023-04-06T03:34:32;9.00;;;6.87;;
18042;SDS011;9146;48.074;11.968;2023-04-06T03:36:59;7.53;;;6.77;;
18042;SDS011;9146;48.074;11.968;2023-04-06T03:39:26;8.07;;;6.77;;
18042;SDS011;9146;48.074;11.968;2023-04-06T03:41:55;6.13;;;5.50;;
18042;SDS011;9146;48.074;11.968;2023-04-06T03:44:22;7.23;;;6.57;;
18042;SDS011;9146;48.074;11.968;2023-04-06T03:46:49;6.67;;;5.97;;
18042;SDS011;9146;48.074;11.968;2023-04-06T03:49:16;8.80;;;7.27;;
18042;SDS011;9146;48.074;11.968;2023-04-06T03:51:43;9.10;;;6.23;;
18042;SDS011;9146;48.074;11.968;2023-04-06T03:54:10;8.67;;;6.77;;
18042;SDS011;9146;48.074;11.968;2023-04-06T03:56:37;7.47;;;6.67;;
18042;SDS011;9146;48.074;11.968;2023-04-06T03:59:06;9.33;;;7.00;;
18042;SDS011;9146;48.074;11.968;2023-04-06T04:01:33;8.77;;;7.30;;
18042;SDS011;9146;48.074;11.968;2023-04-06T04:04:00;8.90;;;7.30;;
18042;SDS011;9146;48.074;11.968;2023-04-06T04:06:27;8.10;;;6.50;;
18042;SDS011;9146;48.074;11.968;2023-04-06T04:08:54;8.90;;;7.53;;
18042;SDS011;9146;48.074;11.968;2023-04-06T04:11:22;10.20;;;8.00;;
18042;SDS011;9146;48.074;11.968;2023-04-06T04:13:49;9.17;;;7.77;;
18042;SDS011;9146;48.074;11.968;2023-04-06T04:16:17;8.90;;;8.00;;
18042;SDS011;9146;48.074;11.968;2023-04-06T04:18:46;9.53;;;7.80;;
18042;SDS011;9146;48.074;11.968;2023-04-06T04:21:13;8.50;;;6.90;;
18042;SDS011;9146;48.074;11.968;2023-04-06T04:23:42;8.27;;;7.20;;
18042;SDS011;9146;48.074;11.968;2023-04-06T04:26:09;9.00;;;7.23;;
18042;SDS011;9146;48.074;11.968;2023-04-06T04:28:36;8.83;;;7.60;;
18042;SDS011;9146;48.074;11.968;2023-04-06T04:31:03;9.43;;;7.50;;
18042;SDS011;9146;48.074;11.968;2023-04-06T04:33:32;14.03;;;7.80;;
18042;SDS011;9146;48.074;11.968;2023-04-06T04:35:59;14.40;;;7.83;;
18042;SDS011;9146;48.074;11.968;2023-04-06T04:38:26;9.60;;;7.80;;
18042;SDS011;9146;48.074;11.968;2023-04-06T04:40:53;12.03;;;7.77;;
18042;SDS011;9146;48.074;11.968;2023-04-06T04:43:20;9.70;;;6.90;;
18042;SDS011;9146;48.074;11.968;2023-04-06T04:45:47;10.37;;;7.50;;
18042;SDS011;9146;48.074;11.968;2023-04-06T04:48:14;14.70;;;7.83;;
18042;SDS011;9146;48.074;11.968;2023-04-06T04:50:43;10.07;;;7.23;;
18042;SDS011;9146;48.074;11.968;2023-04-06T04:53:10;13.23;;;8.77;;
18042;SDS011;9146;48.074;11.968;2023-04-06T04:55:37;11.10;;;7.63;;
18042;SDS011;9146;48.074;11.968;2023-04-06T04:58:04;7.23;;;6.30;;
18042;SDS011;9146;48.074;11.968;2023-04-06T05:00:34;9.67;;;7.37;;
18042;SDS011;9146;48.074;11.968;2023-04-06T05:03:01;8.87;;;7.10;;
18042;SDS011;9146;48.074;11.968;2023-04-06T05:05:28;9.83;;;6.80;;
18042;SDS011;9146;48.074;11.968;2023-04-06T05:07:56;9.57;;;7.30;;
18042;SDS011;9146;48.074;11.968;2023-04-06T05:10:23;10.50;;;6.77;;
18042;SDS011;9146;48.074;11.968;2023-04-06T05:12:50;9.13;;;7.60;;
18042;SDS011;9146;48.074;11.968;2023-04-06T05:15:18;10.83;;;7.47;;
18042;SDS011;9146;48.074;11.968;2023-04-06T05:17:45;9.00;;;7.10;;
18042;SDS011;9146;48.074;11.968;2023-04-06T05:20:12;11.20;;;8.07;;
18042;SDS011;9146;48.074;11.968;2023-04-06T05:22:39;12.37;;;8.90;;
18042;SDS011;9146;48.074;11.968;2023-04-06T05:25:09;10.00;;;7.63;;
18042;SDS011;9146;48.074;11.968;2023-04-06T05:27:36;11.20;;;8.13;;
18042;SDS011;9146;48.074;11.968;2023-04-06T05:30:05;13.73;;;9.60;;
18042;SDS011;9146;48.074;11.968;2023-04-06T05:32:33;11.83;;;9.57;;
18042;SDS011;9146;48.074;11.968;2023-04-06T05:35:00;11.27;;;8.30;;
18042;SDS011;9146;48.074;11.968;2023-04-06T05:37:28;9.93;;;8.77;;
18042;SDS011;9146;48.074;11.968;2023-04-06T05:39:55;10.50;;;9.10;;
18042;SDS011;9146;48.074;11.968;2023-04-06T05:42:23;9.40;;;7.10;;
18042;SDS011;9146;48.074;11.968;2023-04-06T05:44:50;10.03;;;8.13;;
18042;SDS011;9146;48.074;11.968;2023-04-06T05:47:17;8.47;;;7.40;;
18042;SDS011;9146;48.074;11.968;2023-04-06T05:49:44;9.33;;;8.33;;
18042;SDS011;9146;48.074;11.968;2023-04-06T05:52:11;10.63;;;7.80;;
18042;SDS011;9146;48.074;11.968;2023-04-06T05:54:38;11.93;;;8.20;;
18042;SDS011;9146;48.074;11.968;2023-04-06T05:57:06;15.53;;;9.60;;
18042;SDS011;9146;48.074;11.968;2023-04-06T05:59:34;10.87;;;9.37;;
18042;SDS011;9146;48.074;11.968;2023-04-06T06:02:01;10.80;;;8.70;;
18042;SDS011;9146;48.074;11.968;2023-04-06T06:04:29;11.60;;;8.60;;
18042;SDS011;9146;48.074;11.968;2023-04-06T06:06:57;11.00;;;9.43;;
18042;SDS011;9146;48.074;11.968;2023-04-06T06:09:23;8.30;;;7.50;;
18042;SDS011;9146;48.074;11.968;2023-04-06T06:11:51;9.13;;;7.70;;
18042;SDS011;9146;48.074;11.968;2023-04-06T06:14:18;9.70;;;8.07;;
18042;SDS011;9146;48.074;11.968;2023-04-06T06:16:48;7.97;;;7.13;;
18042;SDS011;9146;48.074;11.968;2023-04-06T06:19:15;8.17;;;7.37;;
18042;SDS011;9146;48.074;11.968;2023-04-06T06:21:42;8.80;;;7.63;;
18042;SDS011;9146;48.074;11.968;2023-04-06T06:24:09;8.17;;;7.17;;
18042;SDS011;9146;48.074;11.968;2023-04-06T06:26:36;13.80;;;7.57;;
18042;SDS011;9146;48.074;11.968;2023-04-06T06:29:04;10.37;;;7.70;;
18042;SDS011;9146;48.074;11.968;2023-04-06T06:31:32;8.20;;;7.40;;
18042;SDS011;9146;48.074;11.968;2023-04-06T06:34:01;12.50;;;8.30;;
18042;SDS011;9146;48.074;11.968;2023-04-06T06:36:29;8.70;;;7.80;;
18042;SDS011;9146;48.074;11.968;2023-04-06T06:38:57;11.20;;;8.13;;
18042;SDS011;9146;48.074;11.968;2023-04-06T06:41:25;9.70;;;7.13;;
18042;SDS011;9146;48.074;11.968;2023-04-06T06:43:52;7.30;;;6.60;;
18042;SDS011;9146;48.074;11.968;2023-04-06T06:46:20;8.67;;;7.60;;
18042;SDS011;9146;48.074;11.968;2023-04-06T06:48:47;10.07;;;8.03;;
18042;SDS011;9146;48.074;11.968;2023-04-06T06:51:15;11.17;;;7.97;;
18042;SDS011;9146;48.074;11.968;2023-04-06T06:53:42;8.20;;;7.20;;
18042;SDS011;9146;48.074;11.968;2023-04-06T06:56:10;8.80;;;7.57;;
18042;SDS011;9146;48.074;11.968;2023-04-06T06:58:37;10.10;;;6.90;;
18042;SDS011;9146;48.074;11.968;2023-04-06T07:01:04;15.40;;;8.77;;
18042;SDS011;9146;48.074;11.968;2023-04-06T07:03:32;11.07;;;8.10;;
18042;SDS011;9146;48.074;11.968;2023-04-06T07:05:59;12.80;;;8.20;;
18042;SDS011;9146;48.074;11.968;2023-04-06T07:08:28;10.17;;;8.83;;
18042;SDS011;9146;48.074;11.968;2023-04-06T07:10:55;11.17;;;8.63;;
18042;SDS011;9146;48.074;11.968;2023-04-06T07:13:22;9.87;;;7.97;;
18042;SDS011;9146;48.074;11.968;2023-04-06T07:15:49;11.57;;;8.53;;
18042;SDS011;9146;48.074;11.968;2023-04-06T07:18:17;10.60;;;7.40;;
18042;SDS011;9146;48.074;11.968;2023-04-06T07:20:44;17.70;;;8.10;;
18042;SDS011;9146;48.074;11.968;2023-04-06T07:23:11;8.70;;;7.50;;
18042;SDS011;9146;48.074;11.968;2023-04-06T07:25:40;10.77;;;7.93;;
18042;SDS011;9146;48.074;11.968;2023-04-06T07:28:07;13.17;;;7.93;;
18042;SDS011;9146;48.074;11.968;2023-04-06T07:30:34;12.43;;;8.87;;
18042;SDS011;9146;48.074;11.968;2023-04-06T07:33:02;9.40;;;7.40;;
18042;SDS011;9146;48.074;11.968;2023-04-06T07:35:30;10.17;;;7.17;;
18042;SDS011;9146;48.074;11.968;2023-04-06T07:37:57;9.30;;;7.50;;
18042;SDS011;9146;48.074;11.968;2023-04-06T07:40:25;7.07;;;6.37;;
18042;SDS011;9146;48.074;11.968;2023-04-06T07:42:54;7.37;;;6.53;;
18042;SDS011;9146;48.074;11.968;2023-04-06T07:45:21;9.07;;;8.10;;
18042;SDS011;9146;48.074;11.968;2023-04-06T07:47:48;8.17;;;7.40;;
18042;SDS011;9146;48.074;11.968;2023-04-06T07:50:15;10.93;;;7.50;;
18042;SDS011;9146;48.074;11.968;2023-04-06T07:52:43;8.37;;;7.40;;
18042;SDS011;9146;48.074;11.968;2023-04-06T07:55:10;8.23;;;7.37;;
18042;SDS011;9146;48.074;11.968;2023-04-06T07:57:37;6.80;;;6.20;;
18042;SDS011;9146;48.074;11.968;2023-04-06T08:00:08;8.73;;;7.07;;
18042;SDS011;9146;48.074;11.968;2023-04-06T08:02:35;8.13;;;6.80;;
18042;SDS011;9146;48.074;11.968;2023-04-06T08:05:03;10.77;;;7.40;;
18042;SDS011;9146;48.074;11.968;2023-04-06T08:07:30;9.93;;;7.00;;
18042;SDS011;9146;48.074;11.968;2023-04-06T08:09:57;9.60;;;7.03;;
18042;SDS011;9146;48.074;11.968;2023-04-06T08:12:24;11.03;;;7.03;;
18042;SDS011;9146;48.074;11.968;2023-04-06T08:14:51;8.77;;;7.17;;
18042;SDS011;9146;48.074;11.968;2023-04-06T08:17:20;7.37;;;5.73;;
18042;SDS011;9146;48.074;11.968;2023-04-06T08:19:47;7.43;;;6.10;;
18042;SDS011;9146;48.074;11.968;2023-04-06T08:22:14;7.73;;;6.93;;
18042;SDS011;9146;48.074;11.968;2023-04-06T08:24:41;10.03;;;6.63;;
18042;SDS011;9146;48.074;11.968;2023-04-06T08:27:08;6.83;;;5.93;;
18042;SDS011;9146;48.074;11.968;2023-04-06T08:29:35;8.60;;;6.90;;
18042;SDS011;9146;48.074;11.968;2023-04-06T08:32:02;10.40;;;7.00;;
18042;SDS011;9146;48.074;11.968;2023-04-06T08:34:32;8.37;;;7.07;;
18042;SDS011;9146;48.074;11.968;2023-04-06T08:36:59;7.40;;;6.30;;
18042;SDS011;9146;48.074;11.968;2023-04-06T08:39:27;7.43;;;6.63;;
18042;SDS011;9146;48.074;11.968;2023-04-06T08:41:55;8.20;;;6.47;;
18042;SDS011;9146;48.074;11.968;2023-04-06T08:44:24;9.17;;;6.50;;
18042;SDS011;9146;48.074;11.968;2023-04-06T08:46:52;6.33;;;5.57;;
18042;SDS011;9146;48.074;11.968;2023-04-06T08:49:19;6.17;;;5.20;;
18042;SDS011;9146;48.074;11.968;2023-04-06T08:51:49;6.70;;;6.03;;
18042;SDS011;9146;48.074;11.968;2023-04-06T08:54:16;9.37;;;6.13;;
18042;SDS011;9146;48.074;11.968;2023-04-06T08:56:43;9.30;;;6.13;;
18042;SDS011;9146;48.074;11.968;2023-04-06T08:59:11;6.57;;;5.83;;
18042;SDS011;9146;48.074;11.968;2023-04-06T09:01:39;7.60;;;6.50;;
18042;SDS011;9146;48.074;11.968;2023-04-06T09:04:08;8.73;;;6.80;;
18042;SDS011;9146;48.074;11.968;2023-04-06T09:06:36;7.57;;;6.63;;
18042;SDS011;9146;48.074;11.968;2023-04-06T09:09:05;9.10;;;6.37;;
18042;SDS011;9146;48.074;11.968;2023-04-06T09:11:45;7.03;;;6.33;;
18042;SDS011;9146;48.074;11.968;2023-04-06T09:14:13;6.90;;;6.20;;
18042;SDS011;9146;48.074;11.968;2023-04-06T09:16:41;6.40;;;5.80;;
18042;SDS011;9146;48.074;11.968;2023-04-06T09:19:10;12.53;;;5.80;;
18042;SDS011;9146;48.074;11.968;2023-04-06T09:21:38;20.33;;;6.40;;
18042;SDS011;9146;48.074;11.968;2023-04-06T09:24:07;7.30;;;6.37;;
18042;SDS011;9146;48.074;11.968;2023-04-06T09:26:44;8.60;;;5.80;;
18042;SDS011;9146;48.074;11.968;2023-04-06T09:29:21;6.67;;;6.07;;
18042;SDS011;9146;48.074;11.968;2023-04-06T09:31:51;10.77;;;6.70;;
18042;SDS011;9146;48.074;11.968;2023-04-06T09:34:21;7.47;;;6.27;;
18042;SDS011;9146;48.074;11.968;2023-04-06T09:36:49;7.33;;;6.27;;
18042;SDS011;9146;48.074;11.968;2023-04-06T09:39:19;10.13;;;5.43;;
18042;SDS011;9146;48.074;11.968;2023-04-06T09:41:49;6.23;;;5.63;;
18042;SDS011;9146;48.074;11.968;2023-04-06T09:44:18;6.80;;;6.20;;
18042;SDS011;9146;48.074;11.968;2023-04-06T09:46:45;8.23;;;7.30;;
18042;SDS011;9146;48.074;11.968;2023-04-06T09:49:13;9.53;;;5.53;;
18042;SDS011;9146;48.074;11.968;2023-04-06T09:51:41;7.23;;;6.13;;
18042;SDS011;9146;48.074;11.968;2023-04-06T09:54:15;6.80;;;6.20;;
18042;SDS011;9146;48.074;11.968;2023-04-06T09:56:47;6.83;;;6.13;;
18042;SDS011;9146;48.074;11.968;2023-04-06T09:59:18;6.07;;;5.47;;
18042;SDS011;9146;48.074;11.968;2023-04-06T10:01:50;10.57;;;5.90;;
18042;SDS011;9146;48.074;11.968;2023-04-06T10:04:21;6.83;;;5.83;;
18042;SDS011;9146;48.074;11.968;2023-04-06T10:07:00;9.13;;;6.80;;
18042;SDS011;9146;48.074;11.968;2023-04-06T10:09:31;8.63;;;7.30;;
18042;SDS011;9146;48.074;11.968;2023-04-06T10:12:03;7.60;;;6.10;;
18042;SDS011;9146;48.074;11.968;2023-04-06T10:14:31;7.40;;;6.70;;
18042;SDS011;9146;48.074;11.968;2023-04-06T10:17:02;7.30;;;6.10;;
18042;SDS011;9146;48.074;11.968;2023-04-06T10:19:32;7.90;;;6.73;;
18042;SDS011;9146;48.074;11.968;2023-04-06T10:22:06;7.13;;;6.43;;
18042;SDS011;9146;48.074;11.968;2023-04-06T10:24:38;8.73;;;6.30;;
18042;SDS011;9146;48.074;11.968;2023-04-06T10:27:07;6.87;;;6.20;;
18042;SDS011;9146;48.074;11.968;2023-04-06T10:29:43;8.50;;;7.07;;
18042;SDS011;9146;48.074;11.968;2023-04-06T10:32:11;7.50;;;6.70;;
18042;SDS011;9146;48.074;11.968;2023-04-06T10:34:38;6.20;;;5.60;;
18042;SDS011;9146;48.074;11.968;2023-04-06T10:37:15;8.80;;;7.20;;
18042;SDS011;9146;48.074;11.968;2023-04-06T10:39:47;10.30;;;6.77;;
18042;SDS011;9146;48.074;11.968;2023-04-06T10:42:22;11.90;;;7.50;;
18042;SDS011;9146;48.074;11.968;2023-04-06T10:44:50;13.93;;;8.47;;
18042;SDS011;9146;48.074;11.968;2023-04-06T10:47:17;12.17;;;7.60;;
18042;SDS011;9146;48.074;11.968;2023-04-06T10:49:45;80.00;;;30.00;;
18042;SDS011;9146;48.074;11.968;2023-04-06T10:52:12;87.03;;;38.43;;
18042;SDS011;9146;48.074;11.968;2023-04-06T10:54:41;56.63;;;21.50;;
18042;SDS011;9146;48.074;11.968;2023-04-06T10:57:09;10.67;;;7.10;;
18042;SDS011;9146;48.074;11.968;2023-04-06T10:59:43;7.30;;;6.23;;
18042;SDS011;9146;48.074;11.968;2023-04-06T11:02:18;7.77;;;6.60;;
18042;SDS011;9146;48.074;11.968;2023-04-06T11:04:53;8.53;;;6.93;;
18042;SDS011;9146;48.074;11.968;2023-04-06T11:07:24;8.70;;;6.43;;
18042;SDS011;9146;48.074;11.968;2023-04-06T11:09:52;8.47;;;6.67;;
18042;SDS011;9146;48.074;11.968;2023-04-06T11:12:23;9.87;;;7.60;;
18042;SDS011;9146;48.074;11.968;2023-04-06T11:14:55;10.40;;;7.03;;
18042;SDS011;9146;48.074;11.968;2023-04-06T11:17:29;9.43;;;7.60;;
18042;SDS011;9146;48.074;11.968;2023-04-06T11:19:56;7.43;;;6.07;;
18042;SDS011;9146;48.074;11.968;2023-04-06T11:22:25;8.80;;;7.90;;
18042;SDS011;9146;48.074;11.968;2023-04-06T11:24:52;6.20;;;5.60;;
18042;SDS011;9146;48.074;11.968;2023-04-06T11:27:20;8.53;;;7.60;;
18042;SDS011;9146;48.074;11.968;2023-04-06T11:29:47;6.53;;;5.83;;
18042;SDS011;9146;48.074;11.968;2023-04-06T11:32:23;6.60;;;6.10;;
18042;SDS011;9146;48.074;11.968;2023-04-06T11:34:50;6.17;;;5.47;;
18042;SDS011;9146;48.074;11.968;2023-04-06T11:37:17;6.70;;;5.87;;
18042;SDS011;9146;48.074;11.968;2023-04-06T11:39:47;13.83;;;7.03;;
18042;SDS011;9146;48.074;11.968;2023-04-06T11:42:21;7.50;;;6.80;;
18042;SDS011;9146;48.074;11.968;2023-04-06T11:44:49;8.03;;;7.27;;
18042;SDS011;9146;48.074;11.968;2023-04-06T11:47:18;6.47;;;5.90;;
18042;SDS011;9146;48.074;11.968;2023-04-06T11:49:49;8.17;;;7.20;;
18042;SDS011;9146;48.074;11.968;2023-04-06T11:52:16;8.00;;;7.17;;
18042;SDS011;9146;48.074;11.968;2023-04-06T11:54:44;7.90;;;7.07;;
18042;SDS011;9146;48.074;11.968;2023-04-06T11:57:12;7.23;;;6.17;;
18042;SDS011;9146;48.074;11.968;2023-04-06T11:59:39;7.57;;;6.50;;
18042;SDS011;9146;48.074;11.968;2023-04-06T12:02:07;8.10;;;6.40;;
18042;SDS011;9146;48.074;11.968;2023-04-06T12:04:34;6.47;;;5.83;;
18042;SDS011;9146;48.074;11.968;2023-04-06T12:07:03;7.00;;;6.40;;
18042;SDS011;9146;48.074;11.968;2023-04-06T12:09:30;7.93;;;6.30;;
18042;SDS011;9146;48.074;11.968;2023-04-06T12:11:59;9.57;;;7.37;;
18042;SDS011;9146;48.074;11.968;2023-04-06T12:14:26;7.30;;;6.60;;
18042;SDS011;9146;48.074;11.968;2023-04-06T12:16:55;7.00;;;5.90;;
18042;SDS011;9146;48.074;11.968;2023-04-06T12:19:22;6.40;;;5.47;;
18042;SDS011;9146;48.074;11.968;2023-04-06T12:21:50;7.50;;;6.60;;
18042;SDS011;9146;48.074;11.968;2023-04-06T12:24:20;6.50;;;5.87;;
18042;SDS011;9146;48.074;11.968;2023-04-06T12:26:47;7.60;;;5.80;;
18042;SDS011;9146;48.074;11.968;2023-04-06T12:29:14;7.47;;;5.77;;
18042;SDS011;9146;48.074;11.968;2023-04-06T12:31:42;5.83;;;5.23;;
18042;SDS011;9146;48.074;11.968;2023-04-06T12:34:10;6.73;;;5.83;;
18042;SDS011;9146;48.074;11.968;2023-04-06T12:36:37;8.50;;;5.20;;
18042;SDS011;9146;48.074;11.968;2023-04-06T12:39:05;6.57;;;5.93;;
18042;SDS011;9146;48.074;11.968;2023-04-06T12:41:33;6.73;;;6.13;;
18042;SDS011;9146;48.074;11.968;2023-04-06T12:44:00;7.33;;;5.30;;
18042;SDS011;9146;48.074;11.968;2023-04-06T12:46:28;6.07;;;5.03;;
18042;SDS011;9146;48.074;11.968;2023-04-06T12:48:56;9.57;;;7.10;;
18042;SDS011;9146;48.074;11.968;2023-04-06T12:51:24;6.37;;;5.77;;
18042;SDS011;9146;48.074;11.968;2023-04-06T12:53:53;9.37;;;5.97;;
18042;SDS011;9146;48.074;11.968;2023-04-06T12:56:20;7.57;;;6.50;;
18042;SDS011;9146;48.074;11.968;2023-04-06T12:58:50;7.27;;;6.57;;
18042;SDS011;9146;48.074;11.968;2023-04-06T13:01:17;6.60;;;5.90;;
18042;SDS011;9146;48.074;11.968;2023-04-06T13:03:45;7.40;;;6.60;;
18042;SDS011;9146;48.074;11.968;2023-04-06T13:06:12;7.10;;;6.40;;
18042;SDS011;9146;48.074;11.968;2023-04-06T13:08:40;7.27;;;6.47;;
18042;SDS011;9146;48.074;11.968;2023-04-06T13:11:07;8.37;;;7.10;;
18042;SDS011;9146;48.074;11.968;2023-04-06T13:13:35;7.40;;;6.60;;
18042;SDS011;9146;48.074;11.968;2023-04-06T13:16:05;7.50;;;5.33;;
18042;SDS011;9146;48.074;11.968;2023-04-06T13:18:34;8.50;;;6.53;;
18042;SDS011;9146;48.074;11.968;2023-04-06T13:21:03;6.07;;;5.03;;
18042;SDS011;9146;48.074;11.968;2023-04-06T13:23:31;7.53;;;6.70;;
18042;SDS011;9146;48.074;11.968;2023-04-06T13:25:59;6.73;;;6.10;;
18042;SDS011;9146;48.074;11.968;2023-04-06T13:28:28;9.43;;;5.50;;
18042;SDS011;9146;48.074;11.968;2023-04-06T13:30:57;6.30;;;5.47;;
18042;SDS011;9146;48.074;11.968;2023-04-06T13:33:26;7.03;;;6.13;;
18042;SDS011;9146;48.074;11.968;2023-04-06T13:35:54;7.83;;;5.60;;
18042;SDS011;9146;48.074;11.968;2023-04-06T13:38:21;5.27;;;4.77;;
18042;SDS011;9146;48.074;11.968;2023-04-06T13:40:49;7.97;;;5.43;;
18042;SDS011;9146;48.074;11.968;2023-04-06T13:43:16;6.93;;;6.23;;
18042;SDS011;9146;48.074;11.968;2023-04-06T13:45:48;6.60;;;6.00;;
18042;SDS011;9146;48.074;11.968;2023-04-06T13:48:16;7.23;;;5.73;;
18042;SDS011;9146;48.074;11.968;2023-04-06T13:50:44;5.13;;;4.63;;
18042;SDS011;9146;48.074;11.968;2023-04-06T13:53:12;5.90;;;5.40;;
18042;SDS011;9146;48.074;11.968;2023-04-06T13:55:39;6.70;;;5.70;;
18042;SDS011;9146;48.074;11.968;2023-04-06T13:58:06;5.93;;;5.43;;
18042;SDS011;9146;48.074;11.968;2023-04-06T14:00:33;5.10;;;4.63;;
18042;SDS011;9146;48.074;11.968;2023-04-06T14:03:01;7.10;;;5.40;;
18042;SDS011;9146;48.074;11.968;2023-04-06T14:05:30;7.20;;;6.00;;
18042;SDS011;9146;48.074;11.968;2023-04-06T14:07:59;8.07;;;5.90;;
18042;SDS011;9146;48.074;11.968;2023-04-06T14:10:26;8.13;;;6.17;;
18042;SDS011;9146;48.074;11.968;2023-04-06T14:12:53;7.67;;;6.90;;
18042;SDS011;9146;48.074;11.968;2023-04-06T14:15:20;6.43;;;5.83;;
18042;SDS011;9146;48.074;11.968;2023-04-06T14:17:48;6.60;;;6.00;;
18042;SDS011;9146;48.074;11.968;2023-04-06T14:20:16;11.40;;;6.10;;
18042;SDS011;9146;48.074;11.968;2023-04-06T14:22:43;5.97;;;5.40;;
18042;SDS011;9146;48.074;11.968;2023-04-06T14:25:12;8.30;;;6.77;;
18042;SDS011;9146;48.074;11.968;2023-04-06T14:27:41;7.20;;;5.53;;
18042;SDS011;9146;48.074;11.968;2023-04-06T14:30:08;7.10;;;6.33;;
18042;SDS011;9146;48.074;11.968;2023-04-06T14:32:36;6.30;;;5.73;;
18042;SDS011;9146;48.074;11.968;2023-04-06T14:35:03;6.13;;;5.33;;
18042;SDS011;9146;48.074;11.968;2023-04-06T14:37:31;6.90;;;6.20;;
18042;SDS011;9146;48.074;11.968;2023-04-06T14:39:58;8.80;;;6.20;;
18042;SDS011;9146;48.074;11.968;2023-04-06T14:42:26;8.40;;;5.70;;
18042;SDS011;9146;48.074;11.968;2023-04-06T14:44:53;5.73;;;5.17;;
18042;SDS011;9146;48.074;11.968;2023-04-06T14:47:20;6.03;;;5.53;;
18042;SDS011;9146;48.074;11.968;2023-04-06T14:49:48;7.17;;;5.63;;